sensor_id;sensor_type;location;lat;lon;timestamp;P1;durP1;ratioP1;P2;durP2;ratioP2
85223;SDS011;75619;51.316;4.824;2024-02-21T00:00:12;14.27;;;5.45;;
85223;SDS011;75619;51.316;4.824;2024-02-21T00:02:38;17.33;;;5.57;;
85223;SDS011;75619;51.316;4.824;2024-02-21T00:05:04;21.60;;;5.90;;
85223;SDS011;75619;51.316;4.824;2024-02-21T00:07:30;19.05;;;5.43;;
85223;SDS011;75619;51.316;4.824;2024-02-21T00:09:55;17.02;;;5.47;;
85223;SDS011;75619;51.316;4.824;2024-02-21T00:12:21;23.63;;;5.80;;
85223;SDS011;75619;51.316;4.824;2024-02-21T00:14:46;15.60;;;4.60;;
85223;SDS011;75619;51.316;4.824;2024-02-21T00:17:12;14.25;;;5.53;;
85223;SDS011;75619;51.316;4.824;2024-02-21T00:19:37;17.23;;;5.63;;
85223;SDS011;75619;51.316;4.824;2024-02-21T00:22:03;21.05;;;6.40;;
85223;SDS011;75619;51.316;4.824;2024-02-21T00:24:29;21.08;;;6.68;;
85223;SDS011;75619;51.316;4.824;2024-02-21T00:26:54;17.80;;;5.07;;
85223;SDS011;75619;51.316;4.824;2024-02-21T00:29:20;20.90;;;5.38;;
85223;SDS011;75619;51.316;4.824;2024-02-21T00:31:45;19.50;;;5.60;;
85223;SDS011;75619;51.316;4.824;2024-02-21T00:34:12;20.38;;;5.40;;
85223;SDS011;75619;51.316;4.824;2024-02-21T00:36:38;18.13;;;7.20;;
85223;SDS011;75619;51.316;4.824;2024-02-21T00:39:04;13.43;;;5.35;;
85223;SDS011;75619;51.316;4.824;2024-02-21T00:41:29;20.75;;;5.15;;
85223;SDS011;75619;51.316;4.824;2024-02-21T00:43:55;17.30;;;5.50;;
85223;SDS011;75619;51.316;4.824;2024-02-21T00:46:20;17.58;;;5.05;;
85223;SDS011;75619;51.316;4.824;2024-02-21T00:48:46;19.35;;;5.40;;
85223;SDS011;75619;51.316;4.824;2024-02-21T00:51:11;11.75;;;5.05;;
85223;SDS011;75619;51.316;4.824;2024-02-21T00:53:37;11.07;;;4.80;;
85223;SDS011;75619;51.316;4.824;2024-02-21T00:56:04;18.15;;;4.93;;
85223;SDS011;75619;51.316;4.824;2024-02-21T00:58:30;16.13;;;6.15;;
85223;SDS011;75619;51.316;4.824;2024-02-21T01:00:56;24.08;;;5.30;;
85223;SDS011;75619;51.316;4.824;2024-02-21T01:03:21;20.67;;;5.75;;
85223;SDS011;75619;51.316;4.824;2024-02-21T01:05:47;12.45;;;4.93;;
85223;SDS011;75619;51.316;4.824;2024-02-21T01:08:12;12.88;;;4.88;;
85223;SDS011;75619;51.316;4.824;2024-02-21T01:10:38;14.05;;;5.63;;
85223;SDS011;75619;51.316;4.824;2024-02-21T01:13:04;19.45;;;5.70;;
85223;SDS011;75619;51.316;4.824;2024-02-21T01:15:29;22.10;;;6.00;;
85223;SDS011;75619;51.316;4.824;2024-02-21T01:17:55;16.88;;;4.63;;
85223;SDS011;75619;51.316;4.824;2024-02-21T01:20:20;15.02;;;5.47;;
85223;SDS011;75619;51.316;4.824;2024-02-21T01:22:46;20.42;;;5.57;;
85223;SDS011;75619;51.316;4.824;2024-02-21T01:25:12;17.17;;;4.78;;
85223;SDS011;75619;51.316;4.824;2024-02-21T01:27:37;20.42;;;5.38;;
85223;SDS011;75619;51.316;4.824;2024-02-21T01:30:03;20.40;;;5.22;;
85223;SDS011;75619;51.316;4.824;2024-02-21T01:32:30;14.63;;;4.78;;
85223;SDS011;75619;51.316;4.824;2024-02-21T01:34:56;12.68;;;4.40;;
85223;SDS011;75619;51.316;4.824;2024-02-21T01:37:21;11.57;;;5.20;;
85223;SDS011;75619;51.316;4.824;2024-02-21T01:39:47;12.32;;;4.30;;
85223;SDS011;75619;51.316;4.824;2024-02-21T01:42:14;14.80;;;4.72;;
85223;SDS011;75619;51.316;4.824;2024-02-21T01:44:40;11.73;;;4.57;;
85223;SDS011;75619;51.316;4.824;2024-02-21T01:47:06;14.75;;;4.60;;
85223;SDS011;75619;51.316;4.824;2024-02-21T01:49:33;17.85;;;4.93;;
85223;SDS011;75619;51.316;4.824;2024-02-21T01:51:59;9.70;;;3.78;;
85223;SDS011;75619;51.316;4.824;2024-02-21T01:54:25;16.73;;;5.30;;
85223;SDS011;75619;51.316;4.824;2024-02-21T01:56:53;13.68;;;5.03;;
85223;SDS011;75619;51.316;4.824;2024-02-21T01:59:19;22.63;;;4.80;;
85223;SDS011;75619;51.316;4.824;2024-02-21T02:01:46;18.23;;;4.70;;
85223;SDS011;75619;51.316;4.824;2024-02-21T02:04:13;10.07;;;4.10;;
85223;SDS011;75619;51.316;4.824;2024-02-21T02:06:39;12.50;;;4.13;;
85223;SDS011;75619;51.316;4.824;2024-02-21T02:09:06;13.52;;;4.75;;
85223;SDS011;75619;51.316;4.824;2024-02-21T02:11:31;13.52;;;4.65;;
85223;SDS011;75619;51.316;4.824;2024-02-21T02:13:57;9.25;;;4.47;;
85223;SDS011;75619;51.316;4.824;2024-02-21T02:16:23;21.40;;;5.97;;
85223;SDS011;75619;51.316;4.824;2024-02-21T02:18:48;12.00;;;4.50;;
85223;SDS011;75619;51.316;4.824;2024-02-21T02:21:20;18.35;;;4.63;;
85223;SDS011;75619;51.316;4.824;2024-02-21T02:24:08;15.52;;;4.78;;
85223;SDS011;75619;51.316;4.824;2024-02-21T02:26:34;12.80;;;4.50;;
85223;SDS011;75619;51.316;4.824;2024-02-21T02:29:01;14.95;;;4.93;;
85223;SDS011;75619;51.316;4.824;2024-02-21T02:31:27;14.15;;;4.90;;
85223;SDS011;75619;51.316;4.824;2024-02-21T02:33:52;14.50;;;4.95;;
85223;SDS011;75619;51.316;4.824;2024-02-21T02:36:18;11.02;;;4.05;;
85223;SDS011;75619;51.316;4.824;2024-02-21T02:38:44;15.10;;;4.22;;
85223;SDS011;75619;51.316;4.824;2024-02-21T02:41:10;13.90;;;4.75;;
85223;SDS011;75619;51.316;4.824;2024-02-21T02:43:35;15.75;;;5.05;;
85223;SDS011;75619;51.316;4.824;2024-02-21T02:46:02;16.30;;;5.18;;
85223;SDS011;75619;51.316;4.824;2024-02-21T02:48:29;15.10;;;4.60;;
85223;SDS011;75619;51.316;4.824;2024-02-21T02:50:54;11.68;;;4.45;;
85223;SDS011;75619;51.316;4.824;2024-02-21T02:53:20;14.35;;;5.35;;
85223;SDS011;75619;51.316;4.824;2024-02-21T02:55:45;13.63;;;4.90;;
85223;SDS011;75619;51.316;4.824;2024-02-21T02:58:11;18.40;;;5.57;;
85223;SDS011;75619;51.316;4.824;2024-02-21T03:00:37;15.32;;;7.00;;
85223;SDS011;75619;51.316;4.824;2024-02-21T03:03:04;10.07;;;5.30;;
85223;SDS011;75619;51.316;4.824;2024-02-21T03:05:30;12.85;;;5.15;;
85223;SDS011;75619;51.316;4.824;2024-02-21T03:07:55;13.13;;;5.65;;
85223;SDS011;75619;51.316;4.824;2024-02-21T03:10:21;22.15;;;6.15;;
85223;SDS011;75619;51.316;4.824;2024-02-21T03:12:46;16.50;;;6.25;;
85223;SDS011;75619;51.316;4.824;2024-02-21T03:15:12;14.10;;;5.72;;
85223;SDS011;75619;51.316;4.824;2024-02-21T03:17:38;20.38;;;5.28;;
85223;SDS011;75619;51.316;4.824;2024-02-21T03:20:04;18.42;;;6.72;;
85223;SDS011;75619;51.316;4.824;2024-02-21T03:22:33;12.85;;;5.20;;
85223;SDS011;75619;51.316;4.824;2024-02-21T03:24:59;15.60;;;5.53;;
85223;SDS011;75619;51.316;4.824;2024-02-21T03:27:24;17.65;;;5.40;;
85223;SDS011;75619;51.316;4.824;2024-02-21T03:29:50;18.80;;;6.03;;
85223;SDS011;75619;51.316;4.824;2024-02-21T03:32:15;15.20;;;5.72;;
85223;SDS011;75619;51.316;4.824;2024-02-21T03:34:40;23.25;;;5.63;;
85223;SDS011;75619;51.316;4.824;2024-02-21T03:37:06;18.38;;;5.75;;
85223;SDS011;75619;51.316;4.824;2024-02-21T03:39:32;13.70;;;5.30;;
85223;SDS011;75619;51.316;4.824;2024-02-21T03:41:58;19.90;;;6.13;;
85223;SDS011;75619;51.316;4.824;2024-02-21T03:44:25;15.52;;;5.45;;
85223;SDS011;75619;51.316;4.824;2024-02-21T03:46:52;17.67;;;4.80;;
85223;SDS011;75619;51.316;4.824;2024-02-21T03:49:18;13.70;;;5.30;;
85223;SDS011;75619;51.316;4.824;2024-02-21T03:51:43;17.25;;;5.63;;
85223;SDS011;75619;51.316;4.824;2024-02-21T03:54:09;15.40;;;5.93;;
85223;SDS011;75619;51.316;4.824;2024-02-21T03:56:37;19.48;;;5.70;;
85223;SDS011;75619;51.316;4.824;2024-02-21T03:59:05;15.32;;;4.88;;
85223;SDS011;75619;51.316;4.824;2024-02-21T04:01:31;20.60;;;5.90;;
85223;SDS011;75619;51.316;4.824;2024-02-21T04:03:57;15.63;;;4.93;;
85223;SDS011;75619;51.316;4.824;2024-02-21T04:06:23;14.63;;;5.95;;
85223;SDS011;75619;51.316;4.824;2024-02-21T04:08:48;19.63;;;5.70;;
85223;SDS011;75619;51.316;4.824;2024-02-21T04:11:14;15.82;;;5.50;;
85223;SDS011;75619;51.316;4.824;2024-02-21T04:13:39;14.30;;;4.70;;
85223;SDS011;75619;51.316;4.824;2024-02-21T04:16:05;16.77;;;4.63;;
85223;SDS011;75619;51.316;4.824;2024-02-21T04:18:31;16.73;;;5.50;;
85223;SDS011;75619;51.316;4.824;2024-02-21T04:20:56;19.15;;;6.63;;
85223;SDS011;75619;51.316;4.824;2024-02-21T04:23:22;18.40;;;6.55;;
85223;SDS011;75619;51.316;4.824;2024-02-21T04:25:47;18.95;;;6.38;;
85223;SDS011;75619;51.316;4.824;2024-02-21T04:28:13;22.80;;;5.53;;
85223;SDS011;75619;51.316;4.824;2024-02-21T04:30:38;17.75;;;5.90;;
85223;SDS011;75619;51.316;4.824;2024-02-21T04:33:04;18.00;;;6.43;;
85223;SDS011;75619;51.316;4.824;2024-02-21T04:35:29;12.75;;;6.82;;
85223;SDS011;75619;51.316;4.824;2024-02-21T04:37:55;9.63;;;4.90;;
85223;SDS011;75619;51.316;4.824;2024-02-21T04:40:20;17.08;;;5.03;;
85223;SDS011;75619;51.316;4.824;2024-02-21T04:42:46;14.43;;;5.15;;
85223;SDS011;75619;51.316;4.824;2024-02-21T04:45:11;18.50;;;6.13;;
85223;SDS011;75619;51.316;4.824;2024-02-21T04:47:37;13.85;;;5.60;;
85223;SDS011;75619;51.316;4.824;2024-02-21T04:50:02;18.63;;;6.30;;
85223;SDS011;75619;51.316;4.824;2024-02-21T04:52:28;21.88;;;6.40;;
85223;SDS011;75619;51.316;4.824;2024-02-21T04:54:54;14.50;;;5.43;;
85223;SDS011;75619;51.316;4.824;2024-02-21T04:57:20;17.25;;;6.15;;
85223;SDS011;75619;51.316;4.824;2024-02-21T04:59:46;15.68;;;4.75;;
85223;SDS011;75619;51.316;4.824;2024-02-21T05:02:15;19.42;;;6.38;;
85223;SDS011;75619;51.316;4.824;2024-02-21T05:04:40;17.23;;;6.15;;
85223;SDS011;75619;51.316;4.824;2024-02-21T05:07:07;15.07;;;5.72;;
85223;SDS011;75619;51.316;4.824;2024-02-21T05:09:33;15.80;;;5.53;;
85223;SDS011;75619;51.316;4.824;2024-02-21T05:11:58;14.88;;;5.40;;
85223;SDS011;75619;51.316;4.824;2024-02-21T05:14:24;15.77;;;5.10;;
85223;SDS011;75619;51.316;4.824;2024-02-21T05:16:52;16.80;;;5.68;;
85223;SDS011;75619;51.316;4.824;2024-02-21T05:19:17;16.83;;;6.43;;
85223;SDS011;75619;51.316;4.824;2024-02-21T05:21:43;11.52;;;5.97;;
85223;SDS011;75619;51.316;4.824;2024-02-21T05:24:09;20.92;;;6.53;;
85223;SDS011;75619;51.316;4.824;2024-02-21T05:26:34;23.17;;;6.68;;
85223;SDS011;75619;51.316;4.824;2024-02-21T05:29:00;17.33;;;5.90;;
85223;SDS011;75619;51.316;4.824;2024-02-21T05:31:25;10.68;;;5.35;;
85223;SDS011;75619;51.316;4.824;2024-02-21T05:33:51;11.60;;;5.28;;
85223;SDS011;75619;51.316;4.824;2024-02-21T05:36:17;13.70;;;5.50;;
85223;SDS011;75619;51.316;4.824;2024-02-21T05:38:42;15.77;;;5.60;;
85223;SDS011;75619;51.316;4.824;2024-02-21T05:41:08;19.02;;;6.95;;
85223;SDS011;75619;51.316;4.824;2024-02-21T05:43:33;19.92;;;6.70;;
85223;SDS011;75619;51.316;4.824;2024-02-21T05:45:59;15.50;;;5.80;;
85223;SDS011;75619;51.316;4.824;2024-02-21T05:48:24;20.48;;;6.30;;
85223;SDS011;75619;51.316;4.824;2024-02-21T05:50:50;14.18;;;6.65;;
85223;SDS011;75619;51.316;4.824;2024-02-21T05:53:16;18.60;;;7.82;;
85223;SDS011;75619;51.316;4.824;2024-02-21T05:55:42;23.33;;;7.47;;
85223;SDS011;75619;51.316;4.824;2024-02-21T05:58:07;16.15;;;5.85;;
85223;SDS011;75619;51.316;4.824;2024-02-21T06:00:36;22.25;;;6.57;;
85223;SDS011;75619;51.316;4.824;2024-02-21T06:03:02;14.90;;;6.38;;
85223;SDS011;75619;51.316;4.824;2024-02-21T06:05:28;16.85;;;6.95;;
85223;SDS011;75619;51.316;4.824;2024-02-21T06:07:53;20.67;;;7.18;;
85223;SDS011;75619;51.316;4.824;2024-02-21T06:10:19;20.92;;;5.85;;
85223;SDS011;75619;51.316;4.824;2024-02-21T06:12:45;18.27;;;5.93;;
85223;SDS011;75619;51.316;4.824;2024-02-21T06:15:10;13.63;;;6.93;;
85223;SDS011;75619;51.316;4.824;2024-02-21T06:17:36;13.05;;;5.32;;
85223;SDS011;75619;51.316;4.824;2024-02-21T06:20:01;11.75;;;5.20;;
85223;SDS011;75619;51.316;4.824;2024-02-21T06:22:27;15.02;;;5.70;;
85223;SDS011;75619;51.316;4.824;2024-02-21T06:24:52;17.35;;;6.13;;
85223;SDS011;75619;51.316;4.824;2024-02-21T06:27:19;15.80;;;6.32;;
85223;SDS011;75619;51.316;4.824;2024-02-21T06:29:45;18.10;;;5.70;;
85223;SDS011;75619;51.316;4.824;2024-02-21T06:32:10;18.10;;;5.47;;
85223;SDS011;75619;51.316;4.824;2024-02-21T06:34:36;14.82;;;5.93;;
85223;SDS011;75619;51.316;4.824;2024-02-21T06:37:01;17.83;;;6.53;;
85223;SDS011;75619;51.316;4.824;2024-02-21T06:39:27;15.93;;;5.22;;
85223;SDS011;75619;51.316;4.824;2024-02-21T06:41:54;15.80;;;6.40;;
85223;SDS011;75619;51.316;4.824;2024-02-21T06:44:20;16.02;;;6.65;;
85223;SDS011;75619;51.316;4.824;2024-02-21T06:46:47;15.20;;;5.47;;
85223;SDS011;75619;51.316;4.824;2024-02-21T06:49:12;15.60;;;5.50;;
85223;SDS011;75619;51.316;4.824;2024-02-21T06:51:44;12.77;;;6.03;;
85223;SDS011;75619;51.316;4.824;2024-02-21T06:54:11;19.33;;;6.47;;
85223;SDS011;75619;51.316;4.824;2024-02-21T06:56:37;22.85;;;6.30;;
85223;SDS011;75619;51.316;4.824;2024-02-21T06:59:03;23.05;;;5.90;;
85223;SDS011;75619;51.316;4.824;2024-02-21T07:01:29;10.43;;;5.32;;
85223;SDS011;75619;51.316;4.824;2024-02-21T07:03:55;16.20;;;5.43;;
85223;SDS011;75619;51.316;4.824;2024-02-21T07:06:21;17.67;;;6.78;;
85223;SDS011;75619;51.316;4.824;2024-02-21T07:08:47;14.80;;;6.47;;
85223;SDS011;75619;51.316;4.824;2024-02-21T07:11:12;14.75;;;6.00;;
85223;SDS011;75619;51.316;4.824;2024-02-21T07:13:38;17.27;;;6.18;;
85223;SDS011;75619;51.316;4.824;2024-02-21T07:16:04;17.38;;;5.60;;
85223;SDS011;75619;51.316;4.824;2024-02-21T07:18:30;13.77;;;5.72;;
85223;SDS011;75619;51.316;4.824;2024-02-21T07:20:55;19.73;;;6.22;;
85223;SDS011;75619;51.316;4.824;2024-02-21T07:23:21;14.00;;;5.30;;
85223;SDS011;75619;51.316;4.824;2024-02-21T07:25:47;11.85;;;6.13;;
85223;SDS011;75619;51.316;4.824;2024-02-21T07:28:12;15.77;;;5.95;;
85223;SDS011;75619;51.316;4.824;2024-02-21T07:30:39;14.45;;;5.07;;
85223;SDS011;75619;51.316;4.824;2024-02-21T07:33:05;14.43;;;6.10;;
85223;SDS011;75619;51.316;4.824;2024-02-21T07:35:32;11.02;;;5.18;;
85223;SDS011;75619;51.316;4.824;2024-02-21T07:37:57;10.25;;;5.07;;
85223;SDS011;75619;51.316;4.824;2024-02-21T07:40:23;11.95;;;5.03;;
85223;SDS011;75619;51.316;4.824;2024-02-21T07:42:48;10.15;;;4.47;;
85223;SDS011;75619;51.316;4.824;2024-02-21T07:45:14;13.70;;;5.32;;
85223;SDS011;75619;51.316;4.824;2024-02-21T07:47:39;14.52;;;5.45;;
85223;SDS011;75619;51.316;4.824;2024-02-21T07:50:05;10.10;;;4.63;;
85223;SDS011;75619;51.316;4.824;2024-02-21T07:52:32;11.93;;;4.63;;
85223;SDS011;75619;51.316;4.824;2024-02-21T07:54:57;9.35;;;4.50;;
85223;SDS011;75619;51.316;4.824;2024-02-21T07:57:23;15.20;;;6.03;;
85223;SDS011;75619;51.316;4.824;2024-02-21T07:59:48;14.80;;;5.55;;
85223;SDS011;75619;51.316;4.824;2024-02-21T08:02:14;12.57;;;4.82;;
85223;SDS011;75619;51.316;4.824;2024-02-21T08:04:40;12.77;;;4.97;;
85223;SDS011;75619;51.316;4.824;2024-02-21T08:07:06;12.35;;;4.75;;
85223;SDS011;75619;51.316;4.824;2024-02-21T08:09:31;11.77;;;4.40;;
85223;SDS011;75619;51.316;4.824;2024-02-21T08:11:57;8.43;;;3.97;;
85223;SDS011;75619;51.316;4.824;2024-02-21T08:14:22;10.15;;;4.07;;
85223;SDS011;75619;51.316;4.824;2024-02-21T08:16:50;9.18;;;4.10;;
85223;SDS011;75619;51.316;4.824;2024-02-21T08:19:18;7.82;;;4.00;;
85223;SDS011;75619;51.316;4.824;2024-02-21T08:21:44;11.93;;;4.60;;
85223;SDS011;75619;51.316;4.824;2024-02-21T08:24:12;12.23;;;4.15;;
85223;SDS011;75619;51.316;4.824;2024-02-21T08:26:40;20.75;;;4.00;;
85223;SDS011;75619;51.316;4.824;2024-02-21T08:29:06;10.35;;;4.05;;
85223;SDS011;75619;51.316;4.824;2024-02-21T08:31:32;7.30;;;3.65;;
85223;SDS011;75619;51.316;4.824;2024-02-21T08:33:59;9.27;;;3.85;;
85223;SDS011;75619;51.316;4.824;2024-02-21T08:36:32;10.40;;;4.28;;
85223;SDS011;75619;51.316;4.824;2024-02-21T08:39:00;9.52;;;4.53;;
85223;SDS011;75619;51.316;4.824;2024-02-21T08:41:27;10.55;;;5.35;;
85223;SDS011;75619;51.316;4.824;2024-02-21T08:43:53;10.23;;;4.72;;
85223;SDS011;75619;51.316;4.824;2024-02-21T08:46:25;16.75;;;5.13;;
85223;SDS011;75619;51.316;4.824;2024-02-21T08:48:52;12.70;;;5.90;;
85223;SDS011;75619;51.316;4.824;2024-02-21T08:51:18;10.95;;;5.07;;
85223;SDS011;75619;51.316;4.824;2024-02-21T08:53:44;10.80;;;5.07;;
85223;SDS011;75619;51.316;4.824;2024-02-21T08:56:10;14.90;;;5.47;;
85223;SDS011;75619;51.316;4.824;2024-02-21T08:58:36;13.07;;;5.82;;
85223;SDS011;75619;51.316;4.824;2024-02-21T09:01:03;11.15;;;5.00;;
85223;SDS011;75619;51.316;4.824;2024-02-21T09:03:38;12.13;;;5.53;;
85223;SDS011;75619;51.316;4.824;2024-02-21T09:06:04;14.32;;;7.00;;
85223;SDS011;75619;51.316;4.824;2024-02-21T09:08:31;17.42;;;7.55;;
85223;SDS011;75619;51.316;4.824;2024-02-21T09:10:57;13.00;;;5.57;;
85223;SDS011;75619;51.316;4.824;2024-02-21T09:13:24;11.05;;;5.80;;
85223;SDS011;75619;51.316;4.824;2024-02-21T09:15:49;10.35;;;5.20;;
85223;SDS011;75619;51.316;4.824;2024-02-21T09:18:15;17.40;;;5.90;;
85223;SDS011;75619;51.316;4.824;2024-02-21T09:20:42;14.18;;;6.13;;
85223;SDS011;75619;51.316;4.824;2024-02-21T09:23:08;11.32;;;5.72;;
85223;SDS011;75619;51.316;4.824;2024-02-21T09:25:34;15.95;;;8.07;;
85223;SDS011;75619;51.316;4.824;2024-02-21T09:28:00;10.02;;;4.95;;
85223;SDS011;75619;51.316;4.824;2024-02-21T09:30:27;12.18;;;5.78;;
85223;SDS011;75619;51.316;4.824;2024-02-21T09:32:53;9.05;;;4.85;;
85223;SDS011;75619;51.316;4.824;2024-02-21T09:35:18;15.27;;;5.47;;
85223;SDS011;75619;51.316;4.824;2024-02-21T09:37:44;16.38;;;4.82;;
85223;SDS011;75619;51.316;4.824;2024-02-21T09:40:09;13.98;;;7.00;;
85223;SDS011;75619;51.316;4.824;2024-02-21T09:42:39;15.57;;;6.40;;
85223;SDS011;75619;51.316;4.824;2024-02-21T09:50:36;10.68;;;4.93;;
85223;SDS011;75619;51.316;4.824;2024-02-21T09:53:06;11.13;;;5.03;;
85223;SDS011;75619;51.316;4.824;2024-02-21T09:55:35;13.70;;;5.88;;
85223;SDS011;75619;51.316;4.824;2024-02-21T09:58:03;10.57;;;4.78;;
85223;SDS011;75619;51.316;4.824;2024-02-21T10:00:29;11.52;;;4.85;;
85223;SDS011;75619;51.316;4.824;2024-02-21T10:02:55;12.50;;;4.65;;
85223;SDS011;75619;51.316;4.824;2024-02-21T10:05:21;9.85;;;4.88;;
85223;SDS011;75619;51.316;4.824;2024-02-21T10:07:46;16.00;;;4.68;;
85223;SDS011;75619;51.316;4.824;2024-02-21T10:10:14;11.25;;;4.25;;
85223;SDS011;75619;51.316;4.824;2024-02-21T10:12:47;9.07;;;4.40;;
85223;SDS011;75619;51.316;4.824;2024-02-21T10:15:20;9.85;;;4.28;;
85223;SDS011;75619;51.316;4.824;2024-02-21T10:17:48;11.40;;;4.00;;
85223;SDS011;75619;51.316;4.824;2024-02-21T10:20:13;10.30;;;4.07;;
85223;SDS011;75619;51.316;4.824;2024-02-21T10:22:40;11.55;;;4.22;;
85223;SDS011;75619;51.316;4.824;2024-02-21T10:25:12;9.18;;;3.42;;
85223;SDS011;75619;51.316;4.824;2024-02-21T10:27:38;8.18;;;3.60;;
85223;SDS011;75619;51.316;4.824;2024-02-21T10:30:05;7.75;;;3.75;;
85223;SDS011;75619;51.316;4.824;2024-02-21T10:32:32;8.90;;;4.22;;
85223;SDS011;75619;51.316;4.824;2024-02-21T10:35:04;7.47;;;3.17;;
85223;SDS011;75619;51.316;4.824;2024-02-21T10:37:30;7.95;;;3.20;;
85223;SDS011;75619;51.316;4.824;2024-02-21T10:39:57;8.23;;;3.38;;
85223;SDS011;75619;51.316;4.824;2024-02-21T10:42:23;10.75;;;3.60;;
85223;SDS011;75619;51.316;4.824;2024-02-21T10:45:00;7.47;;;3.35;;
85223;SDS011;75619;51.316;4.824;2024-02-21T10:47:29;8.07;;;3.03;;
85223;SDS011;75619;51.316;4.824;2024-02-21T10:49:59;9.10;;;4.00;;
85223;SDS011;75619;51.316;4.824;2024-02-21T10:55:03;11.98;;;4.50;;
85223;SDS011;75619;51.316;4.824;2024-02-21T10:57:34;12.23;;;3.75;;
85223;SDS011;75619;51.316;4.824;2024-02-21T11:00:03;6.13;;;3.45;;
85223;SDS011;75619;51.316;4.824;2024-02-21T11:02:33;11.63;;;4.35;;
85223;SDS011;75619;51.316;4.824;2024-02-21T11:04:59;13.93;;;4.30;;
85223;SDS011;75619;51.316;4.824;2024-02-21T11:07:26;7.10;;;3.38;;
85223;SDS011;75619;51.316;4.824;2024-02-21T11:09:52;9.25;;;3.97;;
85223;SDS011;75619;51.316;4.824;2024-02-21T11:12:21;10.32;;;3.45;;
85223;SDS011;75619;51.316;4.824;2024-02-21T11:14:47;9.65;;;4.38;;
85223;SDS011;75619;51.316;4.824;2024-02-21T11:17:16;8.20;;;2.80;;
85223;SDS011;75619;51.316;4.824;2024-02-21T11:19:42;7.47;;;3.55;;
85223;SDS011;75619;51.316;4.824;2024-02-21T11:22:14;13.40;;;4.07;;
85223;SDS011;75619;51.316;4.824;2024-02-21T11:24:43;10.38;;;3.50;;
85223;SDS011;75619;51.316;4.824;2024-02-21T11:27:12;7.90;;;3.47;;
85223;SDS011;75619;51.316;4.824;2024-02-21T11:29:40;13.00;;;3.20;;
85223;SDS011;75619;51.316;4.824;2024-02-21T11:32:20;13.48;;;4.00;;
85223;SDS011;75619;51.316;4.824;2024-02-21T11:34:53;8.65;;;3.45;;
85223;SDS011;75619;51.316;4.824;2024-02-21T11:37:19;8.23;;;4.20;;
85223;SDS011;75619;51.316;4.824;2024-02-21T11:39:45;7.85;;;3.28;;
85223;SDS011;75619;51.316;4.824;2024-02-21T11:42:10;5.80;;;2.80;;
85223;SDS011;75619;51.316;4.824;2024-02-21T11:44:37;11.45;;;3.17;;
85223;SDS011;75619;51.316;4.824;2024-02-21T11:47:05;7.97;;;3.25;;
85223;SDS011;75619;51.316;4.824;2024-02-21T11:49:36;8.15;;;2.92;;
85223;SDS011;75619;51.316;4.824;2024-02-21T11:52:04;10.75;;;3.13;;
85223;SDS011;75619;51.316;4.824;2024-02-21T11:54:30;12.07;;;2.85;;
85223;SDS011;75619;51.316;4.824;2024-02-21T11:56:56;8.35;;;3.80;;
85223;SDS011;75619;51.316;4.824;2024-02-21T11:59:22;10.48;;;3.63;;
85223;SDS011;75619;51.316;4.824;2024-02-21T12:01:50;8.70;;;2.50;;
85223;SDS011;75619;51.316;4.824;2024-02-21T12:04:21;11.43;;;2.83;;
85223;SDS011;75619;51.316;4.824;2024-02-21T12:06:49;9.93;;;3.55;;
85223;SDS011;75619;51.316;4.824;2024-02-21T12:09:15;8.80;;;3.45;;
85223;SDS011;75619;51.316;4.824;2024-02-21T12:11:42;11.13;;;2.88;;
85223;SDS011;75619;51.316;4.824;2024-02-21T12:14:08;10.13;;;3.45;;
85223;SDS011;75619;51.316;4.824;2024-02-21T12:16:34;8.50;;;3.42;;
85223;SDS011;75619;51.316;4.824;2024-02-21T12:19:02;8.40;;;3.65;;
85223;SDS011;75619;51.316;4.824;2024-02-21T12:21:31;7.63;;;3.05;;
85223;SDS011;75619;51.316;4.824;2024-02-21T12:26:40;8.38;;;2.55;;
85223;SDS011;75619;51.316;4.824;2024-02-21T12:29:06;8.73;;;3.40;;
85223;SDS011;75619;51.316;4.824;2024-02-21T12:31:38;7.05;;;2.55;;
85223;SDS011;75619;51.316;4.824;2024-02-21T12:34:03;7.28;;;2.78;;
85223;SDS011;75619;51.316;4.824;2024-02-21T12:36:30;7.47;;;3.60;;
85223;SDS011;75619;51.316;4.824;2024-02-21T12:38:59;6.30;;;3.33;;
85223;SDS011;75619;51.316;4.824;2024-02-21T12:41:27;6.97;;;2.80;;
85223;SDS011;75619;51.316;4.824;2024-02-21T12:43:53;7.40;;;2.95;;
85223;SDS011;75619;51.316;4.824;2024-02-21T12:46:18;4.93;;;2.30;;
85223;SDS011;75619;51.316;4.824;2024-02-21T12:48:44;9.32;;;3.13;;
85223;SDS011;75619;51.316;4.824;2024-02-21T12:51:10;6.85;;;2.67;;
85223;SDS011;75619;51.316;4.824;2024-02-21T12:53:35;6.53;;;2.88;;
85223;SDS011;75619;51.316;4.824;2024-02-21T12:56:01;8.50;;;3.58;;
85223;SDS011;75619;51.316;4.824;2024-02-21T12:58:27;4.40;;;2.35;;
85223;SDS011;75619;51.316;4.824;2024-02-21T13:00:54;6.60;;;2.42;;
85223;SDS011;75619;51.316;4.824;2024-02-21T13:03:19;5.78;;;2.60;;
85223;SDS011;75619;51.316;4.824;2024-02-21T13:05:46;7.38;;;2.97;;
85223;SDS011;75619;51.316;4.824;2024-02-21T13:08:13;6.03;;;3.28;;
85223;SDS011;75619;51.316;4.824;2024-02-21T13:10:39;5.28;;;3.10;;
85223;SDS011;75619;51.316;4.824;2024-02-21T13:13:05;10.43;;;3.58;;
85223;SDS011;75619;51.316;4.824;2024-02-21T13:15:30;8.35;;;2.88;;
85223;SDS011;75619;51.316;4.824;2024-02-21T13:17:56;8.27;;;3.88;;
85223;SDS011;75619;51.316;4.824;2024-02-21T13:20:25;9.68;;;4.28;;
85223;SDS011;75619;51.316;4.824;2024-02-21T13:22:52;9.02;;;2.92;;
85223;SDS011;75619;51.316;4.824;2024-02-21T13:25:17;7.32;;;3.42;;
85223;SDS011;75619;51.316;4.824;2024-02-21T13:27:46;9.25;;;2.75;;
85223;SDS011;75619;51.316;4.824;2024-02-21T13:30:12;11.43;;;3.17;;
85223;SDS011;75619;51.316;4.824;2024-02-21T13:32:41;8.73;;;3.17;;
85223;SDS011;75619;51.316;4.824;2024-02-21T13:35:13;8.20;;;2.55;;
85223;SDS011;75619;51.316;4.824;2024-02-21T13:37:40;9.15;;;3.85;;
85223;SDS011;75619;51.316;4.824;2024-02-21T13:40:06;6.18;;;2.92;;
85223;SDS011;75619;51.316;4.824;2024-02-21T13:42:34;7.97;;;2.78;;
85223;SDS011;75619;51.316;4.824;2024-02-21T13:45:00;8.48;;;2.47;;
85223;SDS011;75619;51.316;4.824;2024-02-21T13:47:26;10.13;;;3.63;;
85223;SDS011;75619;51.316;4.824;2024-02-21T13:49:52;5.72;;;2.67;;
85223;SDS011;75619;51.316;4.824;2024-02-21T13:52:18;6.95;;;2.55;;
85223;SDS011;75619;51.316;4.824;2024-02-21T13:54:47;10.45;;;2.83;;
85223;SDS011;75619;51.316;4.824;2024-02-21T13:57:13;7.47;;;2.72;;
85223;SDS011;75619;51.316;4.824;2024-02-21T13:59:39;6.20;;;2.78;;
85223;SDS011;75619;51.316;4.824;2024-02-21T14:02:05;7.65;;;2.90;;
85223;SDS011;75619;51.316;4.824;2024-02-21T14:04:34;4.78;;;2.22;;
85223;SDS011;75619;51.316;4.824;2024-02-21T14:07:00;6.18;;;3.15;;
85223;SDS011;75619;51.316;4.824;2024-02-21T14:09:26;6.15;;;2.88;;
85223;SDS011;75619;51.316;4.824;2024-02-21T14:11:54;7.95;;;3.05;;
85223;SDS011;75619;51.316;4.824;2024-02-21T14:14:19;7.35;;;3.22;;
85223;SDS011;75619;51.316;4.824;2024-02-21T14:16:45;10.77;;;4.00;;
85223;SDS011;75619;51.316;4.824;2024-02-21T14:19:12;6.55;;;3.28;;
85223;SDS011;75619;51.316;4.824;2024-02-21T14:21:38;9.32;;;3.00;;
85223;SDS011;75619;51.316;4.824;2024-02-21T14:24:04;8.90;;;3.00;;
85223;SDS011;75619;51.316;4.824;2024-02-21T14:26:31;12.32;;;4.15;;
85223;SDS011;75619;51.316;4.824;2024-02-21T14:28:57;7.82;;;2.75;;
85223;SDS011;75619;51.316;4.824;2024-02-21T14:31:23;11.70;;;3.58;;
85223;SDS011;75619;51.316;4.824;2024-02-21T14:33:48;6.95;;;3.10;;
85223;SDS011;75619;51.316;4.824;2024-02-21T14:36:14;8.52;;;3.88;;
85223;SDS011;75619;51.316;4.824;2024-02-21T14:38:43;9.55;;;3.63;;
85223;SDS011;75619;51.316;4.824;2024-02-21T14:41:10;12.00;;;3.65;;
85223;SDS011;75619;51.316;4.824;2024-02-21T14:43:38;10.18;;;2.97;;